Time;durP1;ratioP1;P1;durP2;ratioP2;P2;SDS_P1;SDS_P2;PMS_P1;PMS_P2;Temp;Humidity;BMP_temperature;BMP_pressure;BME280_temperature;BME280_humidity;BME280_pressure;Samples;Min_cycle;Max_cycle;Signal;HPM_P1;HPM_P2
2022/07/18 00:01:51;;;;;;;;;4.00;4.00;;;;;26.03;27.31;101308.25;5015840;28;45320;-65
2022/07/18 00:04:16;;;;;;;;;3.75;3.75;;;;;26.02;27.41;101309.25;5015700;28;45296;-67
2022/07/18 00:06:42;;;;;;;;;2.00;2.00;;;;;26.03;27.42;101310.97;5015896;28;45249;-66
2022/07/18 00:09:07;;;;;;;;;3.00;3.00;;;;;26.00;27.28;101297.78;5015322;28;52440;-65
2022/07/18 00:11:32;;;;;;;;;3.00;3.00;;;;;26.01;27.21;101296.78;5015553;28;45379;-69
2022/07/18 00:13:58;;;;;;;;;4.00;4.00;;;;;26.04;27.07;101301.03;5015811;28;45276;-69
2022/07/18 00:16:23;;;;;;;;;5.00;3.75;;;;;26.00;27.04;101297.78;5016097;28;45525;-67
2022/07/18 00:18:49;;;;;;;;;4.00;4.00;;;;;25.96;27.29;101294.50;5015326;28;45514;-67
2022/07/18 00:21:15;;;;;;;;;3.25;3.25;;;;;25.95;27.30;101297.34;5014240;28;45430;-66
2022/07/18 00:23:40;;;;;;;;;3.50;3.50;;;;;25.93;27.18;101300.19;5015575;28;45221;-68
2022/07/18 00:26:06;;;;;;;;;2.00;2.00;;;;;25.91;27.23;101294.09;5015457;28;45335;-68
2022/07/18 00:28:31;;;;;;;;;3.50;2.50;;;;;25.88;27.16;101291.69;5015438;28;45284;-69
2022/07/18 00:30:56;;;;;;;;;5.75;2.75;;;;;25.87;27.46;101283.75;5014198;28;45832;-69
2022/07/18 00:33:22;;;;;;;;;2.00;2.00;;;;;25.85;27.46;101288.44;5015316;28;45312;-67
2022/07/18 00:35:48;;;;;;;;;2.75;2.75;;;;;25.78;27.61;101290.84;5015572;28;45397;-66
2022/07/18 00:38:13;;;;;;;;;3.00;1.25;;;;;25.75;27.12;101297.41;5013674;28;46324;-69
2022/07/18 00:40:39;;;;;;;;;2.50;2.50;;;;;25.73;27.43;101298.53;5014995;28;45346;-68
2022/07/18 00:43:04;;;;;;;;;2.00;2.00;;;;;25.71;27.57;101296.00;5015255;28;45320;-69
2022/07/18 00:45:30;;;;;;;;;4.25;3.00;;;;;25.66;27.66;101290.19;5014452;28;45535;-69
2022/07/18 00:47:55;;;;;;;;;2.75;2.75;;;;;25.63;27.70;101294.00;5015651;28;45377;-69
2022/07/18 00:50:22;;;;;;;;;1.75;1.75;;;;;25.58;27.37;101290.06;5015101;28;45447;-67
2022/07/18 00:52:48;;;;;;;;;4.25;4.25;;;;;25.55;27.84;101284.94;5015413;28;45334;-70
2022/07/18 00:55:14;;;;;;;;;3.75;3.75;;;;;25.54;28.22;101288.63;5015309;28;45243;-68
2022/07/18 00:57:41;;;;;;;;;3.00;3.00;;;;;25.48;27.74;101279.28;5014940;28;46514;-69
2022/07/18 01:02:55;;;;;;;;;1.75;1.75;;;;;25.43;28.30;101294.97;5015117;28;45423;-66
2022/07/18 01:05:21;;;;;;;;;3.00;3.00;;;;;25.41;27.79;101289.72;5014846;28;45606;-67
2022/07/18 01:07:46;;;;;;;;;2.00;2.00;;;;;25.36;27.52;101281.22;5014484;28;45764;-67
2022/07/18 01:10:11;;;;;;;;;2.50;2.50;;;;;25.35;28.03;101285.78;5014572;28;45271;-68
2022/07/18 01:12:37;;;;;;;;;3.25;3.25;;;;;25.28;27.79;101273.88;5014794;28;45353;-64
2022/07/18 01:15:04;;;;;;;;;3.00;3.00;;;;;25.30;27.81;101287.16;5014910;28;45149;-68
2022/07/18 01:17:29;;;;;;;;;5.00;3.00;;;;;25.26;28.05;101277.69;5029539;28;46691;-67
2022/07/18 01:19:55;;;;;;;;;4.25;4.25;;;;;25.23;28.20;101282.34;5014745;28;45318;-67
2022/07/18 01:22:21;;;;;;;;;3.25;3.25;;;;;25.21;28.05;101283.50;5014681;28;45804;-68
2022/07/18 01:24:47;;;;;;;;;3.25;3.25;;;;;25.19;28.56;101282.78;5014901;28;45421;-69
2022/07/18 01:27:18;;;;;;;;;3.25;3.25;;;;;25.16;27.94;101277.69;5014062;28;48592;-68
2022/07/18 01:29:45;;;;;;;;;3.00;2.50;;;;;25.14;27.98;101276.97;5014487;28;45202;-68
2022/07/18 01:32:11;;;;;;;;;7.25;6.00;;;;;25.11;28.06;101280.78;5015864;28;45264;-68
2022/07/18 01:34:37;;;;;;;;;4.00;4.00;;;;;25.09;28.32;101282.78;5018267;28;45546;-67
2022/07/18 01:37:03;;;;;;;;;4.25;4.25;;;;;25.06;28.78;101280.34;5017889;28;45339;-68
2022/07/18 01:39:29;;;;;;;;;3.00;3.00;;;;;25.03;28.41;101288.72;5018245;28;45314;-68
2022/07/18 01:41:56;;;;;;;;;3.50;3.50;;;;;25.00;28.43;101284.47;5018009;28;45320;-65
2022/07/18 01:44:21;;;;;;;;;4.25;3.00;;;;;24.96;28.30;101282.19;5018577;28;45558;-67
2022/07/18 01:46:47;;;;;;;;;3.25;3.25;;;;;24.97;28.23;101286.59;5017765;28;45324;-67
2022/07/18 01:49:12;;;;;;;;;2.00;2.00;;;;;24.92;28.49;101277.09;5018064;28;45325;-66
2022/07/18 01:51:37;;;;;;;;;3.25;3.25;;;;;24.94;28.41;101276.97;5018066;28;45290;-63
2022/07/18 01:54:03;;;;;;;;;4.00;3.00;;;;;24.90;28.11;101279.06;5018269;28;45310;-67
2022/07/18 01:56:28;;;;;;;;;2.75;2.75;;;;;24.89;28.33;101269.28;5017845;28;45331;-68
2022/07/18 01:58:54;;;;;;;;;3.00;3.00;;;;;24.87;28.14;101271.28;5017610;28;45166;-66
2022/07/18 02:01:19;;;;;;;;;4.00;4.00;;;;;24.85;28.86;101272.38;5017524;28;45396;-66
2022/07/18 02:03:44;;;;;;;;;13.25;12.25;;;;;24.83;28.42;101264.47;5017636;28;45555;-67
2022/07/18 02:06:10;;;;;;;;;31.75;30.50;;;;;24.78;28.85;101255.97;5017345;28;46206;-65
2022/07/18 02:08:35;;;;;;;;;50.75;41.75;;;;;24.78;29.46;101255.97;5017565;28;45224;-67
2022/07/18 02:11:00;;;;;;;;;47.00;38.75;;;;;24.76;29.60;101249.88;5017692;28;45316;-65
2022/07/18 02:13:26;;;;;;;;;38.00;31.00;;;;;24.73;29.28;101240.22;5017667;28;45362;-66
2022/07/18 02:15:55;;;;;;;;;47.50;38.75;;;;;24.71;29.29;101244.84;5017278;28;46452;-68
2022/07/18 02:18:20;;;;;;;;;32.25;30.00;;;;;24.67;28.89;101239.91;5016967;28;45527;-67
2022/07/18 02:20:46;;;;;;;;;14.50;14.50;;;;;24.65;29.13;101238.22;5017367;28;45503;-66
2022/07/18 02:23:11;;;;;;;;;16.00;12.00;;;;;24.63;29.27;101242.88;5017513;28;45440;-66
2022/07/18 02:25:37;;;;;;;;;13.00;10.00;;;;;24.60;29.17;101243.16;5017326;28;45333;-65
2022/07/18 02:28:03;;;;;;;;;7.75;6.50;;;;;24.58;29.20;101250.50;5017413;28;45341;-68
2022/07/18 02:30:28;;;;;;;;;3.00;3.00;;;;;24.56;28.76;101263.25;5017586;28;45283;-68
2022/07/18 02:32:55;;;;;;;;;3.00;3.00;;;;;24.56;28.43;101265.06;5017372;28;45499;-65
2022/07/18 02:35:20;;;;;;;;;2.00;2.00;;;;;24.53;28.76;101262.66;5017005;28;45550;-67
2022/07/18 02:37:45;;;;;;;;;4.50;4.50;;;;;24.50;29.17;101259.25;5016853;28;45253;-66
2022/07/18 02:40:11;;;;;;;;;3.25;3.25;;;;;24.50;29.23;101255.72;5017398;28;45276;-65
2022/07/18 02:42:37;;;;;;;;;6.00;6.00;;;;;24.48;28.96;101257.69;5017348;28;45507;-67
2022/07/18 02:45:07;;;;;;;;;10.25;10.25;;;;;24.46;29.39;101259.69;5016131;28;46364;-68
2022/07/18 02:47:33;;;;;;;;;6.25;6.25;;;;;24.44;28.82;101253.59;5017002;28;45367;-68
2022/07/18 02:49:58;;;;;;;;;10.50;9.00;;;;;24.42;28.99;101259.09;5016486;28;45529;-68
2022/07/18 02:52:23;;;;;;;;;4.00;4.00;;;;;24.34;29.07;101250.84;5017232;28;45497;-69
2022/07/18 02:54:49;;;;;;;;;2.50;2.50;;;;;24.36;29.54;101252.41;5016315;28;46018;-67
2022/07/18 02:57:14;;;;;;;;;5.25;4.00;;;;;24.36;29.32;101267.69;5048445;28;45393;-67
2022/07/18 02:59:40;;;;;;;;;6.00;5.00;;;;;24.33;29.58;101268.81;5016797;28;45405;-68
2022/07/18 03:02:05;;;;;;;;;5.00;5.00;;;;;24.30;30.12;101269.06;5016762;28;45195;-67
2022/07/18 03:04:31;;;;;;;;;7.25;5.25;;;;;24.26;30.73;101270.31;5016755;28;46529;-66
2022/07/18 03:06:57;;;;;;;;;8.00;6.75;;;;;24.24;31.00;101264.22;5016697;28;45711;-67
2022/07/18 03:09:22;;;;;;;;;6.50;6.50;;;;;24.19;30.96;101264.66;5016442;28;45484;-65
2022/07/18 03:11:47;;;;;;;;;4.75;4.00;;;;;24.18;31.47;101262.09;5016447;28;45387;-67
2022/07/18 03:14:13;;;;;;;;;6.00;6.00;;;;;24.12;30.94;101259.94;5014759;28;48190;-67
2022/07/18 03:16:38;;;;;;;;;7.75;7.75;;;;;24.10;31.25;101259.22;5016127;28;45474;-67
2022/07/18 03:19:04;;;;;;;;;6.50;6.50;;;;;24.06;32.18;101264.88;5016773;28;45312;-67
2022/07/18 03:21:30;;;;;;;;;9.25;8.25;;;;;24.01;32.14;101259.03;5016332;28;45573;-67
2022/07/18 03:23:56;;;;;;;;;8.00;8.00;;;;;23.95;32.22;101254.16;5016118;28;46099;-68
2022/07/18 03:26:21;;;;;;;;;8.75;7.75;;;;;23.93;32.62;101245.38;5016092;28;45389;-65
2022/07/18 03:28:47;;;;;;;;;8.00;8.00;;;;;23.90;32.64;101242.97;5016035;28;45244;-67
2022/07/18 03:31:12;;;;;;;;;9.75;8.50;;;;;23.87;32.51;101243.25;5016289;28;45284;-66
2022/07/18 03:33:38;;;;;;;;;5.50;5.50;;;;;23.85;31.70;101240.66;5015979;28;46292;-67
2022/07/18 03:36:05;;;;;;;;;5.25;5.25;;;;;23.84;31.54;101246.19;5031635;28;45672;-67
2022/07/18 03:38:31;;;;;;;;;7.50;7.25;;;;;23.77;31.29;101232.44;5016280;28;45443;-68
2022/07/18 03:40:56;;;;;;;;;11.50;11.50;;;;;23.82;31.08;101237.41;5016000;28;45338;-68
2022/07/18 03:43:21;;;;;;;;;4.75;4.75;;;;;23.81;31.18;101235.72;5016397;28;46536;-65
2022/07/18 03:45:47;;;;;;;;;9.00;7.75;;;;;23.78;30.90;101235.00;5016090;28;45511;-64
2022/07/18 03:48:13;;;;;;;;;3.75;3.75;;;;;23.77;30.75;101225.22;5015993;28;45525;-66
2022/07/18 03:50:38;;;;;;;;;3.00;3.00;;;;;23.76;31.14;101226.22;5016184;28;45316;-64
2022/07/18 03:53:03;;;;;;;;;5.00;3.75;;;;;23.76;30.37;101228.03;5016181;28;45351;-67
2022/07/18 03:55:29;;;;;;;;;9.50;9.50;;;;;23.75;30.27;101224.50;5015641;28;45585;-68
2022/07/18 03:57:54;;;;;;;;;4.50;4.50;;;;;23.76;30.50;101238.78;5014355;28;45338;-68
2022/07/18 04:00:20;;;;;;;;;4.50;4.50;;;;;23.74;30.20;101241.63;5014533;28;45641;-66
2022/07/18 04:02:47;;;;;;;;;2.25;2.25;;;;;23.71;29.90;101239.19;5015517;28;45462;-66
2022/07/18 04:05:14;;;;;;;;;7.75;5.75;;;;;23.71;30.11;101236.50;5015687;28;45471;-65
2022/07/18 04:07:40;;;;;;;;;3.00;3.00;;;;;23.74;30.02;101240.75;5015863;28;45235;-66
2022/07/18 04:10:08;;;;;;;;;9.00;4.75;;;;;23.71;30.76;101241.88;5014780;28;45552;-68
2022/07/18 04:12:34;;;;;;;;;6.00;4.50;;;;;23.68;30.36;101247.50;5015452;28;46550;-66
2022/07/18 04:14:59;;;;;;;;;3.75;3.75;;;;;23.67;30.65;101251.19;5015585;28;45441;-65
2022/07/18 04:17:25;;;;;;;;;4.75;3.50;;;;;23.64;31.34;101241.53;5015035;28;45475;-68
2022/07/18 04:19:52;;;;;;;;;5.50;5.50;;;;;23.67;31.89;101256.56;5015490;28;45264;-68
2022/07/18 04:22:18;;;;;;;;;7.00;7.00;;;;;23.66;32.53;101259.34;5014941;28;46429;-66
2022/07/18 04:24:43;;;;;;;;;8.75;8.00;;;;;23.64;33.14;101263.03;5014980;28;45465;-68
2022/07/18 04:27:09;;;;;;;;;9.25;9.25;;;;;23.64;33.58;101268.41;5015453;28;45280;-65
2022/07/18 04:29:36;;;;;;;;;15.00;11.75;;;;;23.59;34.00;101259.03;5015820;28;45499;-67
2022/07/18 04:32:01;;;;;;;;;8.50;8.50;;;;;23.55;34.08;101246.88;5015212;28;47035;-65
2022/07/18 04:34:27;;;;;;;;;10.00;9.75;;;;;23.54;33.84;101235.25;5014965;28;45548;-68
2022/07/18 04:36:52;;;;;;;;;10.00;10.00;;;;;23.52;33.62;101229.16;5015395;28;45429;-67
2022/07/18 04:39:17;;;;;;;;;13.25;12.00;;;;;23.58;33.76;101220.59;5015283;28;45552;-67
2022/07/18 04:41:43;;;;;;;;;11.50;10.00;;;;;23.61;33.63;101208.75;5014932;28;46428;-67
2022/07/18 04:44:09;;;;;;;;;8.75;8.75;;;;;23.63;33.33;101207.63;5030593;28;45450;-67
2022/07/18 04:46:34;;;;;;;;;5.50;5.50;;;;;23.68;32.94;101204.53;5015183;28;45414;-67
2022/07/18 04:49:00;;;;;;;;;5.25;5.25;;;;;23.69;32.74;101200.88;5015065;28;45301;-66
2022/07/18 04:51:25;;;;;;;;;5.00;5.00;;;;;23.70;32.65;101202.56;5014859;28;46021;-66
2022/07/18 04:53:51;;;;;;;;;5.00;5.00;;;;;23.73;32.26;101213.06;5015106;28;45325;-68
2022/07/18 04:56:16;;;;;;;;;7.00;5.50;;;;;23.77;32.67;101214.50;5015045;28;45450;-68
2022/07/18 04:58:42;;;;;;;;;6.75;5.50;;;;;23.84;32.36;101208.59;5014950;28;45694;-67
2022/07/18 05:01:07;;;;;;;;;3.75;3.75;;;;;23.88;31.70;101199.28;5014804;28;45647;-68
2022/07/18 05:03:32;;;;;;;;;5.25;5.25;;;;;23.95;32.15;101192.38;5014738;28;45478;-67
2022/07/18 05:05:58;;;;;;;;;3.50;3.50;;;;;23.98;31.33;101186.72;5014634;28;45270;-69
2022/07/18 05:08:23;;;;;;;;;3.25;3.25;;;;;24.03;31.17;101181.84;5014482;28;45619;-67
2022/07/18 05:10:48;;;;;;;;;4.00;4.00;;;;;24.11;31.63;101183.00;5014637;28;46349;-67
2022/07/18 05:13:14;;;;;;;;;5.00;5.00;;;;;24.22;31.84;101185.56;5014939;28;45359;-67
2022/07/18 05:15:39;;;;;;;;;2.75;1.75;;;;;24.36;31.32;101177.13;5015448;28;45293;-66
2022/07/18 05:18:05;;;;;;;;;4.75;4.75;;;;;24.59;30.83;101173.34;5015295;28;45192;-67
2022/07/18 05:20:30;;;;;;;;;9.25;9.25;;;;;24.79;31.21;101172.41;5015125;28;45295;-66
2022/07/18 05:22:55;;;;;;;;;6.75;6.75;;;;;24.94;30.74;101162.09;5014250;28;45291;-66
2022/07/18 05:25:24;;;;;;;;;4.75;4.75;;;;;25.07;31.15;101156.44;5014838;28;45327;-67
2022/07/18 05:27:51;;;;;;;;;4.50;4.50;;;;;25.16;30.53;101143.94;5015133;28;45288;-68
2022/07/18 05:30:16;;;;;;;;;4.25;2.75;;;;;25.28;30.63;101154.53;5014678;28;46373;-68
2022/07/18 05:32:43;;;;;;;;;5.25;5.25;;;;;25.36;30.62;101163.59;5014871;28;45424;-64
2022/07/18 05:35:10;;;;;;;;;4.25;4.00;;;;;25.47;30.25;101189.56;5014950;28;45289;-64
2022/07/18 05:37:36;;;;;;;;;5.00;4.00;;;;;25.62;29.62;101214.19;5014891;28;45278;-66
2022/07/18 05:40:06;;;;;;;;;4.75;4.75;;;;;25.74;29.63;101220.25;5014181;28;45387;-68
2022/07/18 05:42:31;;;;;;;;;4.75;4.75;;;;;25.93;29.53;101221.19;5014333;28;45353;-63
2022/07/18 05:44:57;;;;;;;;;4.25;4.25;;;;;26.04;29.32;101223.69;5014574;28;45395;-67
2022/07/18 05:47:22;;;;;;;;;4.00;4.00;;;;;26.08;29.16;101222.41;5012834;28;45494;-68
2022/07/18 05:49:48;;;;;;;;;5.00;5.00;;;;;26.15;29.19;101227.25;5013886;28;45622;-68
2022/07/18 05:52:13;;;;;;;;;6.50;6.50;;;;;26.21;29.21;101224.81;5014108;28;45316;-64
2022/07/18 05:54:39;;;;;;;;;5.50;4.50;;;;;26.20;29.04;101209.63;5014718;28;45256;-68
2022/07/18 05:57:05;;;;;;;;;7.75;6.25;;;;;26.27;29.01;101217.94;5014559;28;45185;-67
2022/07/18 05:59:31;;;;;;;;;10.25;7.25;;;;;26.33;29.14;101214.66;5014108;28;46785;-67
2022/07/18 06:01:56;;;;;;;;;8.50;8.50;;;;;26.39;29.25;101213.22;5014006;28;45283;-66
2022/07/18 06:04:22;;;;;;;;;8.50;8.00;;;;;26.44;28.84;101212.75;5013925;28;45302;-66
2022/07/18 06:06:49;;;;;;;;;10.25;8.50;;;;;26.45;29.24;101206.34;5014316;28;45414;-68
2022/07/18 06:09:16;;;;;;;;;5.25;5.25;;;;;26.48;28.83;101209.63;5014120;28;45549;-68
2022/07/18 06:11:41;;;;;;;;;6.25;5.50;;;;;26.48;29.17;101206.06;5014042;28;45288;-69
2022/07/18 06:14:07;;;;;;;;;7.50;7.50;;;;;26.44;29.08;101213.63;5013900;28;45532;-67
2022/07/18 06:16:32;;;;;;;;;9.75;8.50;;;;;26.38;29.56;101212.34;5014167;28;45376;-65
2022/07/18 06:18:58;;;;;;;;;11.75;7.25;;;;;26.37;29.47;101218.75;5014846;28;45372;-64
2022/07/18 06:21:24;;;;;;;;;8.50;8.25;;;;;26.32;29.48;101212.97;5016806;28;46132;-66
2022/07/18 06:23:49;;;;;;;;;7.75;6.25;;;;;26.34;29.31;101215.53;5017133;28;45376;-67
2022/07/18 06:26:15;;;;;;;;;10.50;9.00;;;;;26.32;29.14;101212.97;5015992;28;45602;-68
2022/07/18 06:28:40;;;;;;;;;11.75;10.50;;;;;26.34;29.31;101216.34;5017274;28;46272;-69
2022/07/18 06:31:06;;;;;;;;;9.25;7.75;;;;;26.35;29.41;101209.13;5016757;28;45447;-66
2022/07/18 06:33:31;;;;;;;;;7.50;7.50;;;;;26.11;29.11;101173.59;5016883;28;45378;-67
2022/07/18 06:35:57;;;;;;;;;14.25;14.25;;;;;26.35;29.06;101217.22;5016981;28;45281;-65
2022/07/18 06:38:22;;;;;;;;;8.25;8.00;;;;;26.36;28.93;101219.75;5016342;28;45513;-65
2022/07/18 06:40:48;;;;;;;;;11.25;11.25;;;;;26.38;29.20;101220.44;5016159;28;45401;-65
2022/07/18 06:43:18;;;;;;;;;7.00;7.00;;;;;26.41;29.45;101213.91;5017001;28;45351;-65
2022/07/18 06:45:47;;;;;;;;;8.00;8.00;;;;;26.47;29.25;101212.44;5017174;28;45546;-65
2022/07/18 06:48:16;;;;;;;;;9.00;9.00;;;;;26.51;28.97;101214.72;5015292;28;48253;-67
2022/07/18 06:50:41;;;;;;;;;11.25;9.50;;;;;26.57;29.08;101215.97;5016485;28;45339;-65
2022/07/18 06:53:07;;;;;;;;;7.00;7.00;;;;;26.59;29.06;101215.78;5016627;28;45339;-64
2022/07/18 06:55:32;;;;;;;;;8.50;8.50;;;;;26.59;28.67;101213.97;5016988;28;45235;-64
2022/07/18 06:57:58;;;;;;;;;12.50;8.00;;;;;26.63;28.50;101226.16;5016333;28;45518;-63
2022/07/18 07:00:24;;;;;;;;;5.00;5.00;;;;;26.66;28.58;101223.16;5016248;28;45364;-67
2022/07/18 07:02:49;;;;;;;;;6.00;6.00;;;;;26.74;28.68;101226.94;5016718;28;45258;-63
2022/07/18 07:05:17;;;;;;;;;8.00;6.50;;;;;26.79;28.81;101224.63;5016723;28;45222;-67
2022/07/18 07:07:43;;;;;;;;;8.00;6.50;;;;;26.85;28.46;101228.56;5016431;28;45876;-68
2022/07/18 07:10:09;;;;;;;;;9.50;8.25;;;;;26.90;28.63;101224.44;5015810;28;45385;-64
2022/07/18 07:12:42;;;;;;;;;7.25;7.25;;;;;27.00;28.38;101237.00;5016063;28;45336;-65
2022/07/18 07:15:09;;;;;;;;;7.25;6.75;;;;;27.04;28.43;101230.28;5016376;28;45486;-67
2022/07/18 07:17:36;;;;;;;;;7.25;6.75;;;;;27.09;28.57;101236.06;5015606;28;45384;-66
2022/07/18 07:20:02;;;;;;;;;6.00;6.00;;;;;27.15;28.37;101227.34;5015915;28;45304;-68
2022/07/18 07:22:28;;;;;;;;;8.75;7.75;;;;;27.26;28.29;101227.09;5015936;28;45339;-68
2022/07/18 07:24:53;;;;;;;;;19.00;18.00;;;;;27.35;28.25;101225.34;5016223;28;45337;-66
2022/07/18 07:27:18;;;;;;;;;4.50;3.25;;;;;27.38;28.15;101216.91;5015711;28;45396;-64
2022/07/18 07:29:44;;;;;;;;;9.25;7.25;;;;;27.49;27.88;101217.66;5015889;28;45388;-67
2022/07/18 07:32:09;;;;;;;;;7.25;7.25;;;;;27.55;28.05;101215.19;5015879;28;45351;-67
2022/07/18 07:34:35;;;;;;;;;8.00;8.00;;;;;27.61;28.06;101221.81;5016074;28;45228;-67
2022/07/18 07:37:00;;;;;;;;;12.50;12.50;;;;;27.67;28.48;101223.06;5015595;28;46507;-68
2022/07/18 07:39:26;;;;;;;;;9.50;7.75;;;;;27.75;28.05;101216.84;5015664;28;45366;-65
2022/07/18 07:41:51;;;;;;;;;6.75;5.50;;;;;27.83;28.32;101217.75;5015541;28;45228;-66
2022/07/18 07:44:16;;;;;;;;;8.25;8.25;;;;;27.92;28.22;101209.69;5016398;28;45170;-65
2022/07/18 07:46:42;;;;;;;;;5.25;5.25;;;;;27.98;27.58;101203.63;5015425;28;46336;-66
2022/07/18 07:49:07;;;;;;;;;8.25;7.50;;;;;28.13;28.32;101212.84;5015550;28;45315;-66
2022/07/18 07:51:33;;;;;;;;;13.50;9.75;;;;;28.22;27.84;101208.34;5015318;28;45341;-67
2022/07/18 07:53:58;;;;;;;;;10.00;10.00;;;;;28.27;28.32;101200.59;5015824;28;45623;-65
2022/07/18 07:56:24;;;;;;;;;8.50;7.00;;;;;28.34;28.48;101197.22;5014908;28;45933;-66
2022/07/18 07:58:49;;;;;;;;;8.75;8.75;;;;;28.45;27.91;101206.88;5015395;28;45474;-65
2022/07/18 08:01:17;;;;;;;;;5.75;5.75;;;;;28.53;27.47;101198.78;5015379;28;45417;-65
2022/07/18 08:03:44;;;;;;;;;5.50;5.50;;;;;28.57;27.57;101192.88;5014321;28;45200;-67
2022/07/18 08:06:10;;;;;;;;;8.00;7.00;;;;;28.63;28.04;101196.81;5015120;28;46216;-66
2022/07/18 08:08:35;;;;;;;;;2.00;2.00;;;;;28.71;28.29;101194.09;5014896;28;45337;-66
2022/07/18 08:11:01;;;;;;;;;9.50;8.00;;;;;28.78;28.29;101199.72;5015070;28;45723;-67
2022/07/18 08:13:26;;;;;;;;;10.25;7.00;;;;;28.85;27.42;101199.91;5015505;28;45263;-65
2022/07/18 08:15:51;;;;;;;;;13.00;10.25;;;;;28.93;27.78;101202.63;5015210;28;46247;-65
2022/07/18 08:18:17;;;;;;;;;7.50;7.00;;;;;28.99;27.80;101201.09;5015251;28;45217;-68
2022/07/18 08:20:42;;;;;;;;;6.50;6.25;;;;;29.07;28.42;101200.25;5015277;28;45497;-67
2022/07/18 08:23:10;;;;;;;;;8.50;8.50;;;;;29.16;27.72;101201.94;5015520;28;45582;-68
2022/07/18 08:25:38;;;;;;;;;10.50;10.00;;;;;29.23;27.69;101194.81;5015038;28;45375;-68
2022/07/18 08:28:05;;;;;;;;;7.75;7.75;;;;;29.36;27.96;101197.03;5015014;28;45382;-66
2022/07/18 08:30:31;;;;;;;;;8.75;7.00;;;;;29.44;28.16;101179.94;5014817;28;45298;-66
2022/07/18 08:32:56;;;;;;;;;8.75;8.00;;;;;29.54;27.66;101188.72;5015092;28;45213;-67
2022/07/18 08:35:21;;;;;;;;;9.25;8.25;;;;;29.63;27.62;101186.84;5014535;28;45679;-63
2022/07/18 08:37:47;;;;;;;;;9.00;7.50;;;;;29.71;27.74;101189.53;5014977;28;45468;-68
2022/07/18 08:40:13;;;;;;;;;14.00;12.75;;;;;29.81;27.81;101186.63;5029663;28;45322;-68
2022/07/18 08:42:39;;;;;;;;;7.00;7.00;;;;;29.88;27.83;101190.34;5014359;28;45498;-70
2022/07/18 08:45:06;;;;;;;;;9.50;7.00;;;;;29.94;27.17;101180.66;5013286;28;47284;-69
2022/07/18 08:47:32;;;;;;;;;9.50;8.00;;;;;30.03;27.92;101186.94;5014494;28;45360;-68
2022/07/18 08:49:59;;;;;;;;;10.75;10.25;;;;;30.15;27.85;101193.66;5014506;28;45375;-68
2022/07/18 08:52:25;;;;;;;;;11.50;10.25;;;;;30.20;27.71;101178.72;5014338;28;45566;-67
2022/07/18 08:54:50;;;;;;;;;16.25;15.00;;;;;30.34;27.15;101196.94;5014619;28;45992;-69
2022/07/18 08:57:16;;;;;;;;;7.75;7.50;;;;;30.36;27.41;101186.75;5014436;28;45269;-69
2022/07/18 08:59:42;;;;;;;;;11.00;11.00;;;;;30.49;27.50;101191.63;5014416;28;45434;-68
2022/07/18 09:02:07;;;;;;;;;12.75;10.25;;;;;30.58;27.27;101190.53;5014497;28;45230;-68
2022/07/18 09:04:38;;;;;;;;;7.25;7.00;;;;;30.68;26.83;101190.31;5014318;28;45394;-67
2022/07/18 09:07:04;;;;;;;;;10.00;8.50;;;;;30.75;26.67;101188.59;5014236;28;45252;-68
2022/07/18 09:09:30;;;;;;;;;10.00;8.75;;;;;30.82;26.68;101186.00;5014185;28;45368;-68
2022/07/18 09:11:57;;;;;;;;;8.00;8.00;;;;;30.92;26.38;101188.47;5014271;28;45522;-66
2022/07/18 09:14:40;;;;;;;;;11.50;10.00;;;;;30.99;26.19;101191.28;5014485;28;46362;-66
2022/07/18 09:17:14;;;;;;;;;9.25;9.25;;;;;31.10;25.98;101188.13;5013869;28;45418;-69
2022/07/18 09:19:57;;;;;;;;;11.00;9.00;;;;;31.25;25.96;101193.66;4997323;28;45379;-69
2022/07/18 09:22:25;;;;;;;;;8.25;8.25;;;;;31.35;25.52;101185.25;5015075;28;45289;-69
2022/07/18 09:25:03;;;;;;;;;19.25;11.00;;;;;31.45;25.64;101185.81;5014612;28;46171;-69
2022/07/18 09:27:37;;;;;;;;;11.00;8.50;;;;;31.61;26.06;101190.22;5029504;28;45784;-67
2022/07/18 09:30:08;;;;;;;;;10.50;10.50;;;;;31.77;25.49;101191.09;5014925;28;45411;-69
2022/07/18 09:32:35;;;;;;;;;10.00;10.00;;;;;31.87;25.12;101194.41;5013022;28;45591;-67
2022/07/18 09:35:09;;;;;;;;;9.00;8.75;;;;;31.99;24.75;101189.31;5014272;28;47223;-68
2022/07/18 09:37:35;;;;;;;;;8.50;8.50;;;;;32.05;25.04;101191.28;5014850;28;45246;-65
2022/07/18 09:40:21;;;;;;;;;7.50;6.75;;;;;32.17;25.07;101197.09;5014587;28;45417;-69
2022/07/18 09:43:09;;;;;;;;;14.50;14.25;;;;;32.30;24.79;101204.59;5014517;28;45525;-70
2022/07/18 09:45:37;;;;;;;;;9.25;9.25;;;;;32.38;24.57;101200.91;5013885;28;45493;-68
2022/07/18 09:48:11;;;;;;;;;9.75;9.75;;;;;32.48;24.55;101200.63;5029425;28;45334;-69
2022/07/18 09:50:38;;;;;;;;;8.00;8.00;;;;;32.58;24.64;101206.59;5014147;28;45406;-72
2022/07/18 09:53:24;;;;;;;;;8.25;8.25;;;;;32.66;23.69;101205.59;5015255;28;45243;-67
2022/07/18 09:55:50;;;;;;;;;10.25;10.25;;;;;32.74;23.90;101199.22;5017118;28;45377;-67
2022/07/18 09:58:19;;;;;;;;;8.00;8.00;;;;;32.82;23.46;101206.38;5017258;28;45761;-64
2022/07/18 10:00:46;;;;;;;;;7.75;7.25;;;;;32.86;24.07;101194.09;5017647;28;45502;-69
2022/07/18 10:03:12;;;;;;;;;8.25;8.25;;;;;32.95;24.14;101197.53;5015985;28;45351;-68
2022/07/18 10:05:39;;;;;;;;;8.50;8.25;;;;;33.02;23.79;101193.84;5015771;28;45517;-69
2022/07/18 10:08:08;;;;;;;;;6.25;6.25;;;;;33.09;23.66;101191.16;5017320;28;45262;-65
2022/07/18 10:10:34;;;;;;;;;7.50;7.50;;;;;33.15;23.04;101190.38;5016961;28;45427;-65
2022/07/18 10:13:01;;;;;;;;;9.00;9.00;;;;;33.25;22.96;101184.59;5017005;28;45437;-67
2022/07/18 10:15:29;;;;;;;;;8.75;8.50;;;;;33.35;23.34;101184.22;5016924;28;46177;-67
2022/07/18 10:17:57;;;;;;;;;8.00;8.00;;;;;33.44;23.46;101184.97;5017584;28;45317;-71
2022/07/18 10:20:38;;;;;;;;;10.00;8.00;;;;;33.52;22.72;101179.34;5017689;28;45348;-71
2022/07/18 10:23:14;;;;;;;;;8.00;8.00;;;;;33.64;22.74;101185.09;5017127;28;45202;-67
2022/07/18 10:25:40;;;;;;;;;12.00;7.50;;;;;33.55;22.60;101156.31;5016709;28;46201;-71
2022/07/18 10:28:07;;;;;;;;;9.00;9.00;;;;;33.73;22.14;101166.66;5032270;28;45278;-66
2022/07/18 10:30:39;;;;;;;;;10.25;10.25;;;;;33.68;22.27;101141.88;5032574;28;45440;-71
2022/07/18 10:33:37;;;;;;;;;8.75;8.75;;;;;33.93;22.72;101172.25;5017695;28;45311;-69
2022/07/18 10:36:06;;;;;;;;;9.75;9.75;;;;;34.03;22.12;101166.44;5017030;28;45596;-68
2022/07/18 10:38:32;;;;;;;;;9.00;9.00;;;;;34.07;22.32;101165.81;5017556;28;45390;-69
2022/07/18 10:41:06;;;;;;;;;13.00;13.00;;;;;34.19;21.98;101162.50;5017557;28;45332;-69
2022/07/18 10:43:34;;;;;;;;;8.00;8.00;;;;;34.33;21.67;101156.03;5032581;28;45399;-68
2022/07/18 10:46:01;;;;;;;;;8.75;8.75;;;;;34.40;21.97;101157.94;5017146;28;46142;-65
2022/07/18 10:48:32;;;;;;;;;11.50;11.00;;;;;34.47;21.84;101167.03;5017070;28;45356;-67
2022/07/18 10:51:05;;;;;;;;;17.25;14.75;;;;;34.56;21.35;101154.84;5017534;28;45420;-66
2022/07/18 10:53:52;;;;;;;;;9.50;9.50;;;;;34.64;21.32;101154.66;5017192;28;45553;-67
2022/07/18 10:56:18;;;;;;;;;7.75;7.75;;;;;34.73;21.26;101159.91;5016616;28;46541;-67
2022/07/18 10:58:44;;;;;;;;;8.00;8.00;;;;;34.76;21.26;101156.78;5016852;28;45256;-68
2022/07/18 11:01:17;;;;;;;;;7.00;7.00;;;;;34.86;20.77;101154.47;5016885;28;45261;-69
2022/07/18 11:03:43;;;;;;;;;7.25;7.25;;;;;34.69;20.85;101118.50;5032159;28;45398;-70
2022/07/18 11:06:09;;;;;;;;;7.50;7.50;;;;;34.94;20.19;101148.78;5015512;28;46156;-67
2022/07/18 11:08:35;;;;;;;;;6.25;6.25;;;;;35.00;20.30;101155.34;5016519;28;45262;-69
2022/07/18 11:11:05;;;;;;;;;6.75;6.75;;;;;35.08;19.80;101148.81;5015688;28;45262;-70
2022/07/18 11:13:32;;;;;;;;;10.75;8.00;;;;;35.13;20.06;101151.75;5016479;28;45415;-70
2022/07/18 11:16:09;;;;;;;;;8.00;8.00;;;;;35.23;19.97;101151.31;5016688;28;45405;-70
2022/07/18 11:18:42;;;;;;;;;7.50;7.50;;;;;35.27;20.05;101152.56;5016073;28;45290;-68
2022/07/18 11:21:21;;;;;;;;;7.50;7.00;;;;;35.35;20.00;101146.88;5016261;28;45430;-66
2022/07/18 11:23:49;;;;;;;;;4.50;4.50;;;;;35.43;19.78;101151.25;5016605;28;45268;-69